Time;durP1;ratioP1;P1;durP2;ratioP2;P2;SDS_P1;SDS_P2;PMS_P1;PMS_P2;Temp;Humidity;BMP_temperature;BMP_pressure;BME280_temperature;BME280_humidity;BME280_pressure;Samples;Min_cycle;Max_cycle;Signal;HPM_P1;HPM_P2
2021/03/18 00:00:48;;;;;;;28.90;15.55;;;-1.00;99.90;;;;;;5028364;28;20036;-76
2021/03/18 00:03:17;;;;;;;24.63;15.18;;;-1.00;99.90;;;;;;5036912;28;20118;-76
2021/03/18 00:05:44;;;;;;;24.15;12.27;;;-1.00;99.90;;;;;;5042598;28;20044;-76
2021/03/18 00:08:11;;;;;;;31.58;15.23;;;-1.10;99.90;;;;;;5041022;28;20140;-76
2021/03/18 00:10:38;;;;;;;24.45;12.55;;;-1.00;99.90;;;;;;5048523;28;20065;-76
2021/03/18 00:13:07;;;;;;;30.33;14.00;;;-1.00;99.90;;;;;;5030932;28;20122;-77
2021/03/18 00:15:35;;;;;;;22.02;13.73;;;-1.00;99.90;;;;;;5053180;28;20068;-78
2021/03/18 00:18:05;;;;;;;25.00;13.18;;;-1.00;99.90;;;;;;5068239;28;20052;-76
2021/03/18 00:20:32;;;;;;;31.92;15.35;;;-1.10;99.90;;;;;;5017549;28;20136;-76
2021/03/18 00:22:58;;;;;;;26.52;14.18;;;-1.20;99.90;;;;;;5014374;28;20098;-75
2021/03/18 00:25:25;;;;;;;30.02;14.07;;;-1.10;99.90;;;;;;5029083;28;20057;-77
2021/03/18 00:27:51;;;;;;;20.10;13.05;;;-1.10;99.90;;;;;;5031603;28;20148;-77
2021/03/18 00:30:19;;;;;;;22.92;13.52;;;-1.30;99.90;;;;;;5023534;28;20125;-77
2021/03/18 00:32:46;;;;;;;26.63;13.65;;;-1.30;99.90;;;;;;5007540;28;20034;-77
2021/03/18 00:35:15;;;;;;;22.42;12.85;;;-1.30;99.90;;;;;;5014576;28;20448;-77
2021/03/18 00:37:43;;;;;;;21.52;12.93;;;-1.20;99.90;;;;;;5027581;28;20042;-77
2021/03/18 00:40:14;;;;;;;23.10;13.77;;;-1.30;99.90;;;;;;5016575;28;20169;-77
2021/03/18 00:42:52;;;;;;;23.40;14.35;;;-1.30;99.90;;;;;;5026188;28;20110;-76
2021/03/18 00:45:20;;;;;;;29.23;15.13;;;-1.30;99.90;;;;;;5032036;28;20051;-76
2021/03/18 00:47:47;;;;;;;24.23;13.80;;;-1.30;99.90;;;;;;5017555;28;20248;-76
2021/03/18 00:50:18;;;;;;;24.15;13.90;;;-1.40;99.90;;;;;;5014018;28;20144;-76
2021/03/18 00:52:45;;;;;;;30.02;13.32;;;-1.50;99.90;;;;;;5013734;28;20042;-77
2021/03/18 00:55:13;;;;;;;27.08;15.35;;;-1.60;99.90;;;;;;5030483;28;20110;-76
2021/03/18 00:57:39;;;;;;;49.35;22.45;;;-1.70;99.90;;;;;;5030755;28;20148;-76
2021/03/18 01:00:17;;;;;;;47.45;22.20;;;-1.50;99.90;;;;;;5029463;28;20159;-76
2021/03/18 01:02:49;;;;;;;47.33;22.70;;;-1.60;99.90;;;;;;5026104;28;20049;-76
2021/03/18 01:05:22;;;;;;;44.95;20.25;;;-1.60;99.90;;;;;;5028531;28;20053;-76
2021/03/18 01:07:49;;;;;;;33.97;17.92;;;-1.70;99.90;;;;;;5030338;28;20410;-76
2021/03/18 01:10:16;;;;;;;26.52;14.60;;;-1.70;99.90;;;;;;5029885;28;20080;-76
2021/03/18 01:12:43;;;;;;;30.67;17.08;;;-1.70;99.90;;;;;;5029923;28;20127;-77
2021/03/18 01:15:11;;;;;;;30.52;16.33;;;-1.80;99.90;;;;;;5040328;28;20718;-76
2021/03/18 01:17:37;;;;;;;33.42;15.57;;;-1.90;99.90;;;;;;5049391;28;20564;-76
2021/03/18 01:20:08;;;;;;;31.55;16.67;;;-1.90;99.90;;;;;;5030451;28;20072;-76
2021/03/18 01:22:35;;;;;;;33.42;17.92;;;-2.00;99.90;;;;;;5042647;28;20527;-77
2021/03/18 01:25:02;;;;;;;28.10;15.57;;;-1.90;99.90;;;;;;5063066;28;20559;-77
2021/03/18 01:27:28;;;;;;;34.65;16.98;;;-1.90;99.90;;;;;;5013146;28;20107;-77
2021/03/18 01:29:54;;;;;;;31.55;16.45;;;-1.80;99.90;;;;;;5046351;28;20413;-76
2021/03/18 01:32:34;;;;;;;28.00;14.35;;;-1.70;99.90;;;;;;5030385;28;20037;-77
2021/03/18 01:35:00;;;;;;;31.27;16.35;;;-1.60;99.90;;;;;;5012281;28;20136;-77
2021/03/18 01:37:26;;;;;;;26.23;15.60;;;-1.30;99.90;;;;;;5043580;28;20060;-76
2021/03/18 01:39:55;;;;;;;34.10;16.75;;;-1.20;99.90;;;;;;5045058;28;20053;-77
2021/03/18 01:42:23;;;;;;;30.35;15.52;;;-1.20;99.90;;;;;;5028464;28;20061;-76
2021/03/18 01:44:49;;;;;;;37.60;17.83;;;-1.10;99.90;;;;;;5008756;28;20044;-76
2021/03/18 01:47:16;;;;;;;44.70;19.40;;;-0.90;99.90;;;;;;5043194;28;20041;-76
2021/03/18 01:49:43;;;;;;;26.58;14.07;;;-0.90;99.90;;;;;;5047209;28;20141;-77
2021/03/18 01:52:09;;;;;;;26.15;14.45;;;-0.80;99.90;;;;;;5046215;28;20568;-77
2021/03/18 01:54:35;;;;;;;26.15;13.82;;;-0.70;99.90;;;;;;5015186;28;20498;-76
2021/03/18 01:57:02;;;;;;;25.70;14.82;;;-0.70;99.90;;;;;;5017255;28;20140;-76
2021/03/18 01:59:28;;;;;;;30.27;15.65;;;-0.70;99.90;;;;;;5029680;28;20041;-76
2021/03/18 02:01:54;;;;;;;89.80;25.67;;;-0.60;99.90;;;;;;5045243;28;20059;-76
2021/03/18 02:04:21;;;;;;;118.07;26.52;;;-0.50;99.90;;;;;;5028912;28;20143;-77
2021/03/18 02:06:48;;;;;;;43.58;17.73;;;-0.60;99.90;;;;;;5045539;28;20048;-76
2021/03/18 02:09:14;;;;;;;162.15;30.60;;;-0.80;99.90;;;;;;5011651;28;20102;-76
2021/03/18 02:11:40;;;;;;;178.65;32.95;;;-0.60;99.90;;;;;;5027637;28;20051;-76
2021/03/18 02:14:07;;;;;;;187.02;37.63;;;-0.40;99.90;;;;;;5012682;28;20078;-75
2021/03/18 02:16:37;;;;;;;134.52;26.13;;;-0.30;99.90;;;;;;5048047;28;20308;-76
2021/03/18 02:19:28;;;;;;;212.35;34.75;;;-0.30;99.90;;;;;;5046143;28;20059;-75
2021/03/18 02:22:39;;;;;;;195.00;36.90;;;-0.40;99.90;;;;;;5027965;28;20131;-76
2021/03/18 02:25:25;;;;;;;297.15;39.97;;;-0.30;99.90;;;;;;5043912;28;20053;-75
2021/03/18 02:28:28;;;;;;;238.32;42.05;;;-0.30;99.90;;;;;;5044933;28;20285;-76
2021/03/18 02:31:11;;;;;;;284.33;48.55;;;-0.10;99.90;;;;;;5044498;28;20064;-75
2021/03/18 02:34:17;;;;;;;321.35;46.92;;;0.00;99.90;;;;;;5013766;28;20136;-75
2021/03/18 02:36:56;;;;;;;401.60;55.15;;;0.00;99.90;;;;;;5020388;28;20049;-75
2021/03/18 02:39:32;;;;;;;525.45;65.70;;;0.00;99.90;;;;;;5025081;28;20057;-75
2021/03/18 02:42:06;;;;;;;;;;;0.10;99.90;;;;;;5041735;28;20102;-76
2021/03/18 02:44:34;;;;;;;255.02;44.47;;;0.10;99.90;;;;;;5024230;28;19921;-76
2021/03/18 02:47:06;;;;;;;454.38;60.85;;;0.10;99.90;;;;;;5045618;28;20053;-76
2021/03/18 02:49:36;;;;;;;468.15;66.50;;;0.10;99.90;;;;;;5045109;28;20136;-76
2021/03/18 02:52:04;;;;;;;445.60;66.47;;;0.10;99.90;;;;;;5027671;28;20532;-75
2021/03/18 02:54:32;;;;;;;487.73;71.90;;;0.20;99.90;;;;;;5044034;28;20127;-75
2021/03/18 02:57:02;;;;;;;387.70;65.25;;;0.30;99.90;;;;;;5044156;28;20409;-75
2021/03/18 02:59:33;;;;;;;402.33;65.93;;;0.30;99.90;;;;;;5028312;28;20059;-76
2021/03/18 03:02:02;;;;;;;444.77;65.35;;;0.30;99.90;;;;;;5011432;28;20094;-76
2021/03/18 03:04:30;;;;;;;413.10;62.40;;;0.40;99.90;;;;;;5026944;28;20053;-76
2021/03/18 03:06:58;;;;;;;424.80;65.82;;;0.40;99.90;;;;;;5033225;28;20144;-76
2021/03/18 03:09:25;;;;;;;277.60;48.25;;;0.50;99.90;;;;;;5041198;28;20072;-75
2021/03/18 03:11:55;;;;;;;405.70;63.78;;;0.40;99.90;;;;;;5022448;28;20072;-75
2021/03/18 03:14:22;;;;;;;462.35;66.15;;;0.30;99.90;;;;;;5027494;28;20107;-76
2021/03/18 03:16:49;;;;;;;440.17;66.18;;;0.40;99.90;;;;;;5028432;28;20369;-75
2021/03/18 03:19:16;;;;;;;383.85;60.15;;;0.50;99.90;;;;;;5040759;28;20053;-76
2021/03/18 03:21:44;;;;;;;353.23;62.08;;;0.50;99.90;;;;;;5024733;28;20132;-76
2021/03/18 03:24:12;;;;;;;483.77;67.40;;;0.50;99.90;;;;;;5011457;28;20076;-75
2021/03/18 03:26:39;;;;;;;400.02;62.15;;;0.30;99.90;;;;;;5027449;28;20075;-75
2021/03/18 03:29:08;;;;;;;360.55;61.45;;;0.30;99.90;;;;;;5043313;28;20151;-76
2021/03/18 03:31:34;;;;;;;376.63;58.67;;;0.30;99.90;;;;;;5020724;28;20056;-75
2021/03/18 03:34:05;;;;;;;396.65;65.78;;;0.40;99.90;;;;;;5035190;28;20432;-75
2021/03/18 03:36:33;;;;;;;454.02;71.40;;;0.50;99.90;;;;;;5028741;28;20497;-75
2021/03/18 03:39:00;;;;;;;364.98;65.75;;;0.40;99.90;;;;;;5027839;28;20137;-75
2021/03/18 03:41:26;;;;;;;415.48;68.80;;;0.20;99.90;;;;;;5025678;28;20616;-76
2021/03/18 03:43:53;;;;;;;366.67;63.35;;;0.20;99.90;;;;;;5044522;28;20083;-76
2021/03/18 03:46:19;;;;;;;368.20;66.90;;;0.30;99.90;;;;;;5054694;28;20404;-75
2021/03/18 03:48:46;;;;;;;288.67;56.08;;;0.20;99.90;;;;;;5064123;28;20047;-75
2021/03/18 03:51:12;;;;;;;360.75;67.28;;;0.40;99.90;;;;;;5055791;28;20053;-76
2021/03/18 03:53:47;;;;;;;414.25;68.40;;;0.40;99.90;;;;;;5044166;28;20053;-75
2021/03/18 03:56:14;;;;;;;402.92;72.90;;;0.60;99.90;;;;;;5027053;28;20589;-76
2021/03/18 03:58:59;;;;;;;335.25;66.68;;;0.60;99.90;;;;;;5027322;28;20140;-75
2021/03/18 04:01:45;;;;;;;308.05;61.55;;;0.60;99.90;;;;;;5025468;28;20448;-75
2021/03/18 04:04:30;;;;;;;316.13;59.45;;;0.50;99.90;;;;;;5005816;28;20055;-75
2021/03/18 04:07:09;;;;;;;278.25;62.88;;;0.50;99.90;;;;;;5023735;28;20049;-75
2021/03/18 04:09:37;;;;;;;380.70;73.20;;;0.40;99.90;;;;;;5044236;28;20148;-75
2021/03/18 04:12:06;;;;;;;281.75;61.08;;;0.50;99.90;;;;;;5026518;28;20543;-75
2021/03/18 04:14:36;;;;;;;330.13;69.00;;;0.50;99.90;;;;;;5051430;28;20505;-75
2021/03/18 04:17:09;;;;;;;269.02;62.17;;;0.50;99.90;;;;;;5056409;28;20136;-75
2021/03/18 04:19:37;;;;;;;234.45;56.63;;;0.60;99.90;;;;;;5044187;28;20413;-75
2021/03/18 04:22:06;;;;;;;283.10;62.38;;;0.70;99.90;;;;;;5026262;28;20156;-75
2021/03/18 04:24:34;;;;;;;211.57;55.05;;;0.80;99.90;;;;;;5027623;28;20086;-75
2021/03/18 04:27:01;;;;;;;202.07;52.92;;;0.80;99.90;;;;;;5026867;28;20139;-75
2021/03/18 04:29:30;;;;;;;230.38;57.92;;;0.80;99.90;;;;;;5042861;28;20052;-76
2021/03/18 04:31:58;;;;;;;200.05;54.72;;;0.70;99.90;;;;;;5011443;28;20104;-76
2021/03/18 04:34:45;;;;;;;216.45;56.00;;;0.90;99.90;;;;;;5027754;28;20399;-76
2021/03/18 04:37:12;;;;;;;184.45;53.83;;;0.90;99.90;;;;;;5010702;28;20131;-76
2021/03/18 04:39:40;;;;;;;167.13;51.45;;;0.90;99.90;;;;;;5014660;28;20099;-76
2021/03/18 04:42:07;;;;;;;182.00;54.63;;;1.00;99.90;;;;;;5027509;28;20280;-76
2021/03/18 04:44:35;;;;;;;156.40;49.90;;;1.00;99.90;;;;;;5013687;28;20294;-75
2021/03/18 04:47:03;;;;;;;154.68;50.10;;;1.10;99.90;;;;;;5015671;28;20132;-76
2021/03/18 04:49:30;;;;;;;151.10;48.58;;;1.10;99.90;;;;;;5030450;28;20468;-75
2021/03/18 04:51:56;;;;;;;142.30;47.90;;;1.10;99.90;;;;;;5028785;28;20132;-76
2021/03/18 04:54:23;;;;;;;151.60;50.13;;;0.90;99.90;;;;;;5046947;28;20049;-75
2021/03/18 04:56:51;;;;;;;135.07;45.67;;;0.90;99.90;;;;;;5029962;28;20512;-75
2021/03/18 04:59:18;;;;;;;126.00;43.42;;;0.80;99.90;;;;;;5047077;28;20065;-75
2021/03/18 05:01:50;;;;;;;124.32;43.25;;;0.90;99.90;;;;;;5029880;28;20425;-75
2021/03/18 05:04:18;;;;;;;125.03;45.60;;;0.90;99.90;;;;;;5013377;28;20055;-76
2021/03/18 05:06:49;;;;;;;129.98;43.97;;;0.90;99.90;;;;;;5029893;28;20517;-76
2021/03/18 05:09:15;;;;;;;136.57;46.47;;;0.90;99.90;;;;;;5046125;28;20135;-76
2021/03/18 05:11:43;;;;;;;119.78;45.38;;;1.00;99.90;;;;;;5028848;28;20041;-76
2021/03/18 05:14:10;;;;;;;122.80;46.22;;;1.10;99.90;;;;;;5044583;28;20037;-76
2021/03/18 05:16:37;;;;;;;123.70;41.88;;;1.10;99.90;;;;;;5047227;28;20045;-76
2021/03/18 05:19:07;;;;;;;117.88;42.45;;;1.00;99.90;;;;;;5013156;28;20929;-75
2021/03/18 05:21:35;;;;;;;127.20;43.65;;;1.00;99.90;;;;;;5048342;28;20146;-76
2021/03/18 05:24:02;;;;;;;122.72;46.03;;;1.10;99.90;;;;;;5010997;28;20051;-75
2021/03/18 05:26:28;;;;;;;117.32;43.90;;;1.10;99.90;;;;;;5044817;28;20042;-75
2021/03/18 05:28:54;;;;;;;123.78;45.97;;;1.00;99.90;;;;;;5028741;28;20040;-75
2021/03/18 05:31:22;;;;;;;115.60;44.97;;;1.00;99.90;;;;;;5032716;28;20579;-76
2021/03/18 05:33:50;;;;;;;107.00;42.47;;;1.10;99.90;;;;;;5042308;28;20049;-75
2021/03/18 05:36:17;;;;;;;112.72;44.00;;;1.00;99.90;;;;;;5026949;28;20044;-75
2021/03/18 05:38:43;;;;;;;111.72;43.78;;;1.00;99.90;;;;;;5045379;28;20418;-76
2021/03/18 05:41:10;;;;;;;105.95;42.38;;;1.10;99.90;;;;;;5011495;28;20360;-75
2021/03/18 05:43:36;;;;;;;101.90;41.78;;;1.10;99.90;;;;;;5024589;28;20140;-77
2021/03/18 05:46:03;;;;;;;118.72;44.85;;;1.10;99.90;;;;;;5045381;28;20135;-75
2021/03/18 05:48:30;;;;;;;108.78;43.03;;;1.10;99.90;;;;;;5045601;28;20049;-74
2021/03/18 05:50:57;;;;;;;111.55;44.13;;;1.10;99.90;;;;;;5027770;28;20059;-75
2021/03/18 05:53:24;;;;;;;105.43;40.70;;;1.20;99.90;;;;;;5046584;28;20130;-76
2021/03/18 05:55:52;;;;;;;110.47;39.72;;;1.20;99.90;;;;;;5042012;28;20037;-75
2021/03/18 05:58:22;;;;;;;98.65;43.63;;;1.20;99.90;;;;;;5035036;28;20083;-75
2021/03/18 06:00:50;;;;;;;116.57;43.83;;;1.20;99.90;;;;;;5046248;28;20099;-75
2021/03/18 06:03:18;;;;;;;98.60;40.92;;;1.30;99.90;;;;;;5028366;28;20747;-75
2021/03/18 06:06:00;;;;;;;100.93;41.28;;;1.30;99.90;;;;;;5041359;28;20048;-75
2021/03/18 06:08:27;;;;;;;97.15;37.33;;;1.30;99.90;;;;;;5043913;28;20069;-76
2021/03/18 06:10:56;;;;;;;94.38;39.00;;;1.30;99.90;;;;;;5028548;28;20049;-75
2021/03/18 06:13:22;;;;;;;101.72;40.45;;;1.30;99.90;;;;;;5044708;28;20080;-76
2021/03/18 06:15:48;;;;;;;95.53;40.63;;;1.30;99.90;;;;;;5042880;28;20079;-75
2021/03/18 06:18:18;;;;;;;95.13;41.70;;;1.30;99.90;;;;;;5028962;28;20086;-75
2021/03/18 06:20:52;;;;;;;100.18;38.92;;;1.40;99.90;;;;;;5027338;28;20098;-75
2021/03/18 06:23:19;;;;;;;88.40;38.70;;;1.40;99.90;;;;;;5044425;28;20272;-75
2021/03/18 06:25:47;;;;;;;79.22;36.85;;;1.40;99.90;;;;;;5026746;28;20168;-75
2021/03/18 06:28:19;;;;;;;78.55;33.47;;;1.40;99.90;;;;;;5044987;28;20122;-75
2021/03/18 06:31:08;;;;;;;78.50;33.92;;;1.50;99.90;;;;;;5005399;28;20057;-75
2021/03/18 06:33:42;;;;;;;74.10;34.75;;;1.50;99.90;;;;;;5040880;28;20140;-75
2021/03/18 06:36:32;;;;;;;77.00;35.13;;;1.60;99.90;;;;;;5043530;28;20046;-75
2021/03/18 06:39:05;;;;;;;75.60;35.67;;;1.60;99.90;;;;;;5028019;28;20049;-75
2021/03/18 06:41:33;;;;;;;84.50;35.90;;;1.60;99.90;;;;;;5025835;28;20048;-76
2021/03/18 06:43:59;;;;;;;75.22;36.35;;;1.70;99.90;;;;;;5011195;28;20048;-75
2021/03/18 06:46:26;;;;;;;87.05;40.58;;;1.60;99.90;;;;;;5046918;28;20528;-75
2021/03/18 06:49:09;;;;;;;80.28;39.20;;;1.60;99.90;;;;;;5029028;28;20063;-75
2021/03/18 06:51:35;;;;;;;81.90;40.25;;;1.60;99.90;;;;;;5011998;28;20442;-75
2021/03/18 06:54:01;;;;;;;81.97;39.20;;;1.60;99.90;;;;;;5042098;28;20508;-75
2021/03/18 06:56:33;;;;;;;94.15;46.25;;;1.60;99.90;;;;;;5036772;28;20061;-75
2021/03/18 06:59:00;;;;;;;102.53;46.22;;;1.60;99.90;;;;;;5024561;28;20569;-75
2021/03/18 07:01:31;;;;;;;106.97;48.80;;;1.50;99.90;;;;;;5042920;28;20575;-75
2021/03/18 07:04:05;;;;;;;110.00;49.00;;;1.60;99.90;;;;;;5024261;28;20061;-74
2021/03/18 07:06:51;;;;;;;112.72;50.60;;;1.50;99.90;;;;;;5026601;28;20045;-74
2021/03/18 07:09:18;;;;;;;114.72;48.25;;;1.50;99.90;;;;;;5044360;28;20107;-75
2021/03/18 07:11:45;;;;;;;115.50;49.08;;;1.50;99.90;;;;;;5042505;28;20051;-75
2021/03/18 07:14:11;;;;;;;118.28;50.58;;;1.50;99.90;;;;;;5027019;28;20562;-76
2021/03/18 07:16:46;;;;;;;101.45;46.45;;;1.50;99.90;;;;;;5027325;28;20099;-75
2021/03/18 07:19:26;;;;;;;112.60;47.70;;;1.50;99.90;;;;;;5028307;28;20060;-74
2021/03/18 07:21:53;;;;;;;106.22;47.47;;;1.50;99.90;;;;;;5043586;28;20063;-74
2021/03/18 07:24:38;;;;;;;110.10;48.03;;;1.60;99.90;;;;;;5039581;28;20045;-74
2021/03/18 07:27:15;;;;;;;112.47;49.95;;;1.60;99.90;;;;;;5038824;28;20151;-73
2021/03/18 07:29:44;;;;;;;115.57;51.08;;;1.70;99.90;;;;;;5043545;28;20111;-76
2021/03/18 07:32:12;;;;;;;121.35;51.47;;;1.80;99.90;;;;;;4993201;28;20128;-75
2021/03/18 07:34:39;;;;;;;127.90;51.13;;;1.70;99.90;;;;;;5024109;28;20057;-74
2021/03/18 07:37:08;;;;;;;128.00;53.95;;;1.70;99.90;;;;;;5036791;28;20069;-74
2021/03/18 07:39:36;;;;;;;143.88;53.88;;;1.70;99.90;;;;;;5026353;28;20501;-75
2021/03/18 07:42:03;;;;;;;164.80;55.75;;;1.70;99.90;;;;;;5025760;28;20045;-75
2021/03/18 07:44:31;;;;;;;177.77;56.67;;;1.70;99.90;;;;;;5027207;28;20274;-75
2021/03/18 07:47:00;;;;;;;151.05;56.35;;;1.70;99.90;;;;;;5046989;28;20131;-77
2021/03/18 07:49:31;;;;;;;200.15;60.70;;;1.80;99.90;;;;;;5027157;28;20045;-78
2021/03/18 07:52:01;;;;;;;169.23;56.40;;;1.80;99.90;;;;;;5044241;28;20069;-78
2021/03/18 07:54:29;;;;;;;180.88;59.53;;;1.70;99.90;;;;;;5031499;28;20505;-79
2021/03/18 07:56:56;;;;;;;194.30;58.95;;;1.60;99.90;;;;;;5048084;28;20037;-79
2021/03/18 07:59:31;;;;;;;176.18;59.75;;;1.70;99.90;;;;;;5031890;28;20496;-79
2021/03/18 08:02:11;;;;;;;;;;;1.70;99.90;;;;;;5030852;28;20065;-78
2021/03/18 08:04:54;;;;;;;231.95;59.25;;;1.70;99.90;;;;;;5011589;28;19929;-78
2021/03/18 08:07:44;;;;;;;208.00;61.40;;;1.70;99.90;;;;;;5033019;28;20064;-78
2021/03/18 08:10:21;;;;;;;172.05;53.70;;;1.80;99.90;;;;;;5050883;28;20061;-77
2021/03/18 08:13:03;;;;;;;134.65;47.00;;;1.80;99.90;;;;;;5021068;28;20068;-78
2021/03/18 08:15:39;;;;;;;134.98;45.20;;;1.80;99.90;;;;;;5019126;28;20040;-78
2021/03/18 08:18:32;;;;;;;157.45;49.85;;;1.70;99.90;;;;;;5016621;28;20045;-78
2021/03/18 08:21:01;;;;;;;126.50;48.00;;;1.80;99.90;;;;;;5025377;28;20044;-78
2021/03/18 08:23:28;;;;;;;136.80;49.72;;;1.80;99.90;;;;;;5034139;28;20053;-78
2021/03/18 08:26:00;;;;;;;124.93;49.63;;;1.90;99.90;;;;;;5033838;28;20110;-78
2021/03/18 08:28:58;;;;;;;123.63;46.63;;;2.00;99.90;;;;;;5034507;28;20106;-78
2021/03/18 08:31:46;;;;;;;99.85;42.20;;;2.10;99.90;;;;;;5032479;28;20052;-78
2021/03/18 08:34:13;;;;;;;98.10;41.13;;;2.10;99.90;;;;;;5032974;28;20489;-78
2021/03/18 08:36:56;;;;;;;88.95;39.33;;;2.10;99.90;;;;;;5032855;28;20045;-78
2021/03/18 08:39:47;;;;;;;97.40;40.45;;;2.20;99.90;;;;;;5017256;28;20457;-79
2021/03/18 08:42:29;;;;;;;84.97;35.80;;;2.30;99.90;;;;;;5031427;28;20041;-78
2021/03/18 08:44:58;;;;;;;79.15;33.65;;;2.40;99.90;;;;;;5033243;28;20267;-79
2021/03/18 08:47:43;;;;;;;83.05;35.53;;;2.40;99.90;;;;;;5033315;28;20117;-79
2021/03/18 08:50:14;;;;;;;76.80;32.63;;;2.40;99.90;;;;;;5050314;28;20048;-79
2021/03/18 08:52:43;;;;;;;62.20;30.85;;;2.40;99.90;;;;;;5070504;28;20139;-78
2021/03/18 08:55:12;;;;;;;63.83;29.60;;;2.40;99.90;;;;;;5063016;28;20056;-78
2021/03/18 08:57:40;;;;;;;66.78;32.45;;;2.40;99.90;;;;;;5033406;28;20319;-79
2021/03/18 09:00:19;;;;;;;50.13;25.60;;;2.30;99.90;;;;;;5037559;28;20045;-79
2021/03/18 09:02:46;;;;;;;40.30;23.23;;;2.40;99.90;;;;;;5050220;28;20124;-78
2021/03/18 09:05:16;;;;;;;48.40;26.33;;;2.40;99.90;;;;;;5033008;28;20077;-79
2021/03/18 09:07:50;;;;;;;52.63;25.42;;;2.40;99.90;;;;;;5018458;28;20055;-79
2021/03/18 09:10:28;;;;;;;51.83;26.77;;;2.50;99.90;;;;;;5050920;28;20069;-79
2021/03/18 09:12:59;;;;;;;43.47;25.10;;;2.60;99.90;;;;;;5017054;28;20084;-79
2021/03/18 09:15:31;;;;;;;41.83;24.95;;;2.60;99.90;;;;;;5041326;28;20071;-79
2021/03/18 09:18:11;;;;;;;49.88;26.67;;;2.60;99.90;;;;;;4997313;28;20136;-80
2021/03/18 09:20:38;;;;;;;42.47;25.90;;;2.50;99.90;;;;;;5013056;28;20041;-78
2021/03/18 09:23:16;;;;;;;58.75;28.10;;;2.60;99.90;;;;;;5010862;28;20053;-79
2021/03/18 09:25:44;;;;;;;46.13;27.15;;;2.60;99.90;;;;;;5022397;28;20081;-77
2021/03/18 09:28:12;;;;;;;54.15;28.65;;;2.70;99.90;;;;;;5033713;28;20049;-78
2021/03/18 09:30:55;;;;;;;55.28;29.10;;;2.70;99.90;;;;;;5033373;28;20193;-78
2021/03/18 09:33:21;;;;;;;49.78;25.65;;;2.70;99.90;;;;;;5031917;28;20049;-79
2021/03/18 09:35:49;;;;;;;52.50;26.30;;;2.80;99.90;;;;;;5029485;28;20122;-79
2021/03/18 09:38:26;;;;;;;49.50;25.25;;;2.70;99.90;;;;;;5051229;28;20132;-79
2021/03/18 09:40:53;;;;;;;64.07;28.67;;;2.60;99.90;;;;;;5048636;28;20082;-78
2021/03/18 09:43:21;;;;;;;54.38;26.77;;;2.60;99.90;;;;;;5047855;28;20063;-75
2021/03/18 09:45:52;;;;;;;57.95;28.73;;;2.60;99.90;;;;;;5045563;28;20432;-76
2021/03/18 09:48:37;;;;;;;64.38;26.80;;;2.70;99.90;;;;;;5043242;28;20057;-76
2021/03/18 09:51:12;;;;;;;51.72;27.00;;;2.70;99.90;;;;;;5041130;28;20042;-76
2021/03/18 09:53:41;;;;;;;38.53;21.95;;;2.70;99.90;;;;;;5026160;28;20166;-75
2021/03/18 09:56:10;;;;;;;49.72;25.15;;;2.80;99.90;;;;;;5039195;28;20044;-76
2021/03/18 09:58:39;;;;;;;42.75;20.88;;;2.90;99.90;;;;;;5009792;28;20045;-76
2021/03/18 10:01:23;;;;;;;30.73;20.30;;;3.00;99.90;;;;;;5025691;28;20107;-76
2021/03/18 10:04:02;;;;;;;37.63;22.08;;;3.30;99.90;;;;;;5045432;28;20060;-76
2021/03/18 10:06:36;;;;;;;43.15;25.30;;;3.40;99.90;;;;;;5044528;28;20583;-77
2021/03/18 10:09:24;;;;;;;40.70;25.05;;;3.40;99.90;;;;;;5041411;28;20045;-77
2021/03/18 10:11:53;;;;;;;46.30;24.92;;;3.20;99.90;;;;;;5007955;28;20049;-75
2021/03/18 10:14:35;;;;;;;53.40;28.88;;;3.10;99.90;;;;;;5041146;28;20056;-75
2021/03/18 10:17:14;;;;;;;52.63;28.67;;;3.20;99.90;;;;;;5022084;28;20041;-75
2021/03/18 10:19:54;;;;;;;47.05;27.38;;;3.20;99.90;;;;;;5045102;28;20052;-75
2021/03/18 10:22:22;;;;;;;51.45;26.75;;;3.20;99.90;;;;;;5051244;28;20044;-76
2021/03/18 10:25:07;;;;;;;42.85;25.38;;;3.30;99.90;;;;;;5017418;28;20112;-76
2021/03/18 10:27:37;;;;;;;54.08;26.13;;;3.20;99.90;;;;;;5025884;28;20560;-76
2021/03/18 10:30:07;;;;;;;45.70;25.00;;;3.20;99.90;;;;;;5043272;28;20053;-75
2021/03/18 10:32:34;;;;;;;44.50;25.48;;;3.10;99.90;;;;;;5043996;28;20041;-75
2021/03/18 10:35:01;;;;;;;39.38;22.25;;;3.20;99.90;;;;;;5045337;28;20760;-77
2021/03/18 10:37:33;;;;;;;42.78;22.17;;;3.30;99.90;;;;;;5027548;28;20425;-82
2021/03/18 10:40:28;;;;;;;34.17;23.60;;;3.30;99.90;;;;;;5045471;28;20052;-76
2021/03/18 10:42:58;;;;;;;36.45;23.95;;;3.40;99.90;;;;;;5028864;28;20120;-76
2021/03/18 10:45:34;;;;;;;31.58;24.02;;;3.60;99.90;;;;;;5021316;28;20070;-77
2021/03/18 10:48:06;;;;;;;33.05;21.42;;;3.70;99.90;;;;;;5050315;28;20693;-76
2021/03/18 10:50:38;;;;;;;35.33;22.40;;;3.80;99.90;;;;;;5028671;28;20588;-76
2021/03/18 10:53:10;;;;;;;30.48;20.75;;;3.90;99.90;;;;;;5045368;28;20470;-76
2021/03/18 10:55:44;;;;;;;26.00;23.27;;;4.30;99.90;;;;;;5010170;28;20095;-76
2021/03/18 10:58:25;;;;;;;26.70;22.48;;;4.30;99.90;;;;;;5028151;28;20106;-75
2021/03/18 11:01:00;;;;;;;31.08;22.55;;;4.30;99.90;;;;;;5043952;28;20061;-76
2021/03/18 11:03:32;;;;;;;29.30;22.15;;;4.50;99.90;;;;;;5044735;28;20048;-77
2021/03/18 11:06:00;;;;;;;27.23;23.08;;;4.50;99.90;;;;;;5026713;28;20049;-75
2021/03/18 11:08:31;;;;;;;27.38;22.55;;;4.60;99.90;;;;;;5024335;28;20068;-74
2021/03/18 11:11:02;;;;;;;29.88;23.85;;;4.50;99.90;;;;;;5043374;28;20083;-77
2021/03/18 11:13:30;;;;;;;28.25;21.60;;;4.50;99.90;;;;;;5046991;28;20519;-77
2021/03/18 11:15:58;;;;;;;25.73;22.63;;;4.60;99.90;;;;;;5029889;28;20043;-76
2021/03/18 11:18:31;;;;;;;24.95;21.88;;;4.60;99.90;;;;;;5028496;28;20048;-78
2021/03/18 11:20:58;;;;;;;26.73;23.90;;;4.80;99.90;;;;;;5046484;28;20053;-77
2021/03/18 11:26:13;;;;;;;24.67;22.02;;;4.70;99.90;;;;;;5088044;27;20454;-78
2021/03/18 11:28:57;;;;;;;31.65;23.80;;;4.60;99.90;;;;;;5080104;28;20443;-77
2021/03/18 11:31:26;;;;;;;26.13;23.38;;;4.80;99.90;;;;;;5056083;28;20040;-77
2021/03/18 11:33:57;;;;;;;30.13;22.35;;;4.90;99.90;;;;;;5071266;28;20116;-78
2021/03/18 11:36:44;;;;;;;26.48;23.67;;;5.00;99.90;;;;;;5078457;28;20048;-79
2021/03/18 11:39:11;;;;;;;30.40;22.85;;;5.00;99.90;;;;;;5005910;28;20045;-75
2021/03/18 11:41:37;;;;;;;27.05;23.33;;;4.70;99.90;;;;;;4970863;28;20822;-75
2021/03/18 11:44:04;;;;;;;24.83;22.13;;;4.70;99.90;;;;;;4975668;28;20054;-75
2021/03/18 11:46:30;;;;;;;27.75;21.90;;;4.90;99.90;;;;;;4989251;28;20508;-75
2021/03/18 11:48:57;;;;;;;22.35;20.13;;;5.40;99.90;;;;;;4982230;28;20399;-76
2021/03/18 11:51:23;;;;;;;20.85;19.20;;;5.70;99.90;;;;;;5001635;28;20073;-76
2021/03/18 11:53:50;;;;;;;23.80;21.52;;;6.10;99.90;;;;;;4987473;28;20056;-75
2021/03/18 11:56:17;;;;;;;23.95;21.63;;;6.50;99.90;;;;;;4979579;28;20165;-75
2021/03/18 11:58:44;;;;;;;22.88;20.58;;;6.40;99.90;;;;;;4983601;28;20564;-75
2021/03/18 12:01:10;;;;;;;23.27;21.05;;;6.20;99.90;;;;;;4987399;28;20611;-74
2021/03/18 12:03:37;;;;;;;23.27;21.05;;;6.10;99.90;;;;;;5002350;28;20498;-75
2021/03/18 12:06:04;;;;;;;23.45;21.30;;;5.90;99.90;;;;;;4984751;28;20041;-76
2021/03/18 12:08:30;;;;;;;23.38;20.98;;;6.10;99.90;;;;;;5000912;28;20132;-75
2021/03/18 12:11:04;;;;;;;22.92;20.63;;;6.00;99.90;;;;;;5002087;28;20077;-75
2021/03/18 12:13:31;;;;;;;31.40;21.98;;;5.80;99.90;;;;;;4989690;28;20168;-76
2021/03/18 12:15:58;;;;;;;22.48;20.38;;;5.70;99.90;;;;;;4985877;28;20053;-76
2021/03/18 12:18:26;;;;;;;23.58;21.17;;;5.60;99.90;;;;;;4971635;28;20049;-76
2021/03/18 12:20:53;;;;;;;21.95;20.02;;;5.60;99.90;;;;;;4979441;28;20046;-76
2021/03/18 12:23:20;;;;;;;21.15;19.50;;;5.80;99.90;;;;;;5018637;28;20828;-77
2021/03/18 12:25:46;;;;;;;20.55;18.55;;;5.80;99.90;;;;;;4988946;28;20073;-76
2021/03/18 12:28:17;;;;;;;22.92;20.60;;;5.40;99.90;;;;;;5006215;28;20061;-76
2021/03/18 12:30:46;;;;;;;21.88;20.08;;;5.40;99.90;;;;;;4988583;28;20073;-76
2021/03/18 12:33:13;;;;;;;29.95;21.50;;;5.30;99.90;;;;;;5001072;28;20085;-77
2021/03/18 12:35:40;;;;;;;24.15;20.30;;;5.20;99.90;;;;;;4981237;28;20057;-76
2021/03/18 12:38:06;;;;;;;23.90;20.75;;;5.40;99.90;;;;;;4968776;28;20058;-77
2021/03/18 12:40:32;;;;;;;24.45;20.88;;;5.30;99.90;;;;;;4972846;28;20042;-77
2021/03/18 12:42:59;;;;;;;30.20;22.88;;;5.20;99.90;;;;;;4976580;28;20169;-77
2021/03/18 12:45:26;;;;;;;24.27;21.50;;;5.40;99.90;;;;;;4975491;28;20141;-77
2021/03/18 12:47:52;;;;;;;23.35;20.98;;;5.40;99.90;;;;;;5007436;28;20136;-76
2021/03/18 12:50:21;;;;;;;27.15;21.70;;;5.50;99.90;;;;;;5005798;28;20069;-78
2021/03/18 12:52:48;;;;;;;25.83;22.50;;;5.80;99.90;;;;;;4990145;28;20089;-77